Time;durP1;ratioP1;P1;durP2;ratioP2;P2;SDS_P1;SDS_P2;PMS_P1;PMS_P2;Temp;Humidity;BMP_temperature;BMP_pressure;BME280_temperature;BME280_humidity;BME280_pressure;Samples;Min_cycle;Max_cycle;Signal;HPM_P1;HPM_P2
2022/10/12 00:00:38;;;;;;;15.98;9.15;;;;;;;;;;5011788;28;20020;-74
2022/10/12 00:03:03;;;;;;;14.27;9.40;;;;;;;;;;5012768;28;20100;-74
2022/10/12 00:05:29;;;;;;;18.27;9.75;;;;;;;;;;5011700;28;20051;-74
2022/10/12 00:07:54;;;;;;;20.23;9.73;;;;;;;;;;5011073;28;20029;-74
2022/10/12 00:10:19;;;;;;;18.42;10.98;;;;;;;;;;5011467;28;20858;-74
2022/10/12 00:12:44;;;;;;;18.10;9.93;;;;;;;;;;5012551;28;20847;-74
2022/10/12 00:15:10;;;;;;;15.50;9.57;;;;;;;;;;5011927;28;20903;-74
2022/10/12 00:17:35;;;;;;;27.25;10.55;;;;;;;;;;5041752;28;20884;-74
2022/10/12 00:20:01;;;;;;;17.48;8.63;;;;;;;;;;5029040;28;20121;-73
2022/10/12 00:22:26;;;;;;;17.40;8.95;;;;;;;;;;5010085;28;20092;-73
2022/10/12 00:24:52;;;;;;;16.02;9.98;;;;;;;;;;5028105;28;20094;-73
2022/10/12 00:27:17;;;;;;;16.25;9.02;;;;;;;;;;5029323;28;20065;-73
2022/10/12 00:29:42;;;;;;;15.45;10.10;;;;;;;;;;5017631;28;20028;-73
2022/10/12 00:32:08;;;;;;;21.85;10.00;;;;;;;;;;5013595;28;20131;-73
2022/10/12 00:34:33;;;;;;;18.73;10.95;;;;;;;;;;5010276;28;20024;-73
2022/10/12 00:36:58;;;;;;;19.95;9.88;;;;;;;;;;5028685;28;20914;-74
2022/10/12 00:39:24;;;;;;;17.50;10.13;;;;;;;;;;5033228;28;20174;-74
2022/10/12 00:41:49;;;;;;;22.17;12.07;;;;;;;;;;5015369;28;20503;-73
2022/10/12 00:44:33;;;;;;;19.42;10.77;;;;;;;;;;5031644;28;20016;-74
2022/10/12 00:46:59;;;;;;;18.33;11.02;;;;;;;;;;5028069;28;20017;-74
2022/10/12 00:49:24;;;;;;;18.60;9.38;;;;;;;;;;5029283;28;20032;-74
2022/10/12 00:51:52;;;;;;;16.35;10.57;;;;;;;;;;5027934;28;21005;-72
2022/10/12 00:54:20;;;;;;;19.08;11.02;;;;;;;;;;5033604;28;20024;-73
2022/10/12 00:56:47;;;;;;;18.23;10.57;;;;;;;;;;5031488;28;20052;-73
2022/10/12 00:59:16;;;;;;;22.27;11.65;;;;;;;;;;5030508;28;20013;-73
2022/10/12 01:01:41;;;;;;;17.65;11.10;;;;;;;;;;5012895;28;20026;-73
2022/10/12 01:04:07;;;;;;;19.38;10.93;;;;;;;;;;5028311;28;20808;-73
2022/10/12 01:06:32;;;;;;;21.13;11.00;;;;;;;;;;5004866;28;20024;-73
2022/10/12 01:08:58;;;;;;;20.50;10.90;;;;;;;;;;5003243;28;20394;-73
2022/10/12 01:11:23;;;;;;;17.15;10.52;;;;;;;;;;5012428;28;20823;-73
2022/10/12 01:13:49;;;;;;;13.35;9.98;;;;;;;;;;5029785;28;20971;-72
2022/10/12 01:16:14;;;;;;;15.48;9.77;;;;;;;;;;5013691;28;20813;-73
2022/10/12 01:18:59;;;;;;;16.55;10.77;;;;;;;;;;5030792;28;20043;-73
2022/10/12 01:21:25;;;;;;;18.33;11.07;;;;;;;;;;5009629;28;20036;-73
2022/10/12 01:23:56;;;;;;;18.45;11.45;;;;;;;;;;5020638;28;20017;-73
2022/10/12 01:26:24;;;;;;;22.83;9.95;;;;;;;;;;5029332;28;20028;-73
2022/10/12 01:29:08;;;;;;;16.05;9.65;;;;;;;;;;5012020;28;20884;-73
2022/10/12 01:31:43;;;;;;;17.95;9.73;;;;;;;;;;5047217;28;20009;-72
2022/10/12 01:34:11;;;;;;;20.35;10.13;;;;;;;;;;5012862;28;20127;-73
2022/10/12 01:36:43;;;;;;;15.70;9.52;;;;;;;;;;5030703;28;20065;-74
2022/10/12 01:39:32;;;;;;;17.05;9.30;;;;;;;;;;5041280;28;20902;-74
2022/10/12 01:41:59;;;;;;;17.48;9.93;;;;;;;;;;5020970;28;20139;-74
2022/10/12 01:44:25;;;;;;;16.98;10.00;;;;;;;;;;5048166;28;20017;-74
2022/10/12 01:46:51;;;;;;;14.73;10.18;;;;;;;;;;5013537;28;20059;-74
2022/10/12 01:49:17;;;;;;;20.88;10.68;;;;;;;;;;5031206;28;20063;-74
2022/10/12 01:52:06;;;;;;;16.35;10.00;;;;;;;;;;5031257;28;20017;-74
2022/10/12 01:54:50;;;;;;;17.38;10.82;;;;;;;;;;5037301;28;20094;-74
2022/10/12 01:57:24;;;;;;;19.33;11.43;;;;;;;;;;5034803;28;20024;-74
2022/10/12 01:59:59;;;;;;;21.25;11.75;;;;;;;;;;5026147;28;20017;-74
2022/10/12 02:02:24;;;;;;;;;;;;;;;;;;5022717;28;20021;-73
2022/10/12 02:05:15;;;;;;;19.15;11.18;;;;;;;;;;5027596;28;20015;-72
2022/10/12 02:07:44;;;;;;;19.85;11.43;;;;;;;;;;4992513;28;20055;-71
2022/10/12 02:10:21;;;;;;;23.17;11.55;;;;;;;;;;5014643;28;20028;-72
2022/10/12 02:12:47;;;;;;;17.02;10.00;;;;;;;;;;5030522;28;20025;-72
2022/10/12 02:15:13;;;;;;;18.00;10.70;;;;;;;;;;5003290;28;20013;-72
2022/10/12 02:17:40;;;;;;;20.33;11.35;;;;;;;;;;5031434;28;20016;-72
2022/10/12 02:20:08;;;;;;;17.92;11.48;;;;;;;;;;5032515;28;20017;-72
2022/10/12 02:22:35;;;;;;;21.77;12.02;;;;;;;;;;5012772;28;20136;-72
2022/10/12 02:25:03;;;;;;;21.15;12.68;;;;;;;;;;5013847;28;20052;-73
2022/10/12 02:27:28;;;;;;;18.45;13.02;;;;;;;;;;5024621;28;20012;-73
2022/10/12 02:29:54;;;;;;;20.27;11.82;;;;;;;;;;5013154;28;20024;-73
2022/10/12 02:32:25;;;;;;;22.35;12.25;;;;;;;;;;5013424;28;20027;-73
2022/10/12 02:34:53;;;;;;;21.30;11.75;;;;;;;;;;5013305;28;20020;-73
2022/10/12 02:37:19;;;;;;;27.98;12.80;;;;;;;;;;5031041;28;20039;-76
2022/10/12 02:39:44;;;;;;;27.00;12.57;;;;;;;;;;5004454;28;20021;-76
2022/10/12 02:42:11;;;;;;;18.90;11.87;;;;;;;;;;5011781;28;21165;-76
2022/10/12 02:44:38;;;;;;;26.33;11.32;;;;;;;;;;5011980;28;20694;-76
2022/10/12 02:47:05;;;;;;;18.33;10.55;;;;;;;;;;5011477;28;20032;-76
2022/10/12 02:49:31;;;;;;;18.90;11.45;;;;;;;;;;5010780;28;20033;-73
2022/10/12 02:51:57;;;;;;;18.05;11.55;;;;;;;;;;5035257;28;20017;-73
2022/10/12 02:54:22;;;;;;;22.75;12.35;;;;;;;;;;5017204;28;20020;-73
2022/10/12 02:56:47;;;;;;;18.40;11.82;;;;;;;;;;5032002;28;21007;-73
2022/10/12 02:59:14;;;;;;;15.77;10.75;;;;;;;;;;5015505;28;20036;-73
2022/10/12 03:01:40;;;;;;;24.92;12.48;;;;;;;;;;5016347;28;20031;-73
2022/10/12 03:04:06;;;;;;;21.95;12.38;;;;;;;;;;5012829;28;20141;-73
2022/10/12 03:06:32;;;;;;;21.73;11.40;;;;;;;;;;5029947;28;20081;-74
2022/10/12 03:08:57;;;;;;;18.50;10.68;;;;;;;;;;5012260;28;20013;-74
2022/10/12 03:11:23;;;;;;;19.30;11.38;;;;;;;;;;5030392;28;20911;-74
2022/10/12 03:13:52;;;;;;;17.05;11.32;;;;;;;;;;5011863;28;20107;-75
2022/10/12 03:16:17;;;;;;;18.17;11.32;;;;;;;;;;5004548;28;20024;-74
2022/10/12 03:18:42;;;;;;;20.17;11.88;;;;;;;;;;5013130;28;20070;-73
2022/10/12 03:21:08;;;;;;;17.75;12.45;;;;;;;;;;5029904;28;20020;-75
2022/10/12 03:23:33;;;;;;;19.05;12.20;;;;;;;;;;5002570;28;20032;-74
2022/10/12 03:25:59;;;;;;;14.38;11.10;;;;;;;;;;5037671;28;21009;-75
2022/10/12 03:28:24;;;;;;;28.83;11.10;;;;;;;;;;5011820;28;20119;-75
2022/10/12 03:30:49;;;;;;;23.88;11.50;;;;;;;;;;5030285;28;20978;-75
2022/10/12 03:33:15;;;;;;;19.83;12.68;;;;;;;;;;5018216;28;20854;-75
2022/10/12 03:35:42;;;;;;;22.27;12.18;;;;;;;;;;5013576;28;20858;-75
2022/10/12 03:38:07;;;;;;;26.80;13.13;;;;;;;;;;5007653;28;20016;-75
2022/10/12 03:40:34;;;;;;;18.45;11.23;;;;;;;;;;5010862;28;20016;-76
2022/10/12 03:42:59;;;;;;;22.38;13.00;;;;;;;;;;5013813;28;20021;-73
2022/10/12 03:45:25;;;;;;;17.95;11.60;;;;;;;;;;5028747;28;20078;-73
2022/10/12 03:47:50;;;;;;;15.85;11.90;;;;;;;;;;5004754;28;20025;-73
2022/10/12 03:50:15;;;;;;;23.00;12.95;;;;;;;;;;5034276;28;20823;-73
2022/10/12 03:52:40;;;;;;;18.58;12.70;;;;;;;;;;5030731;28;20907;-73
2022/10/12 03:55:06;;;;;;;21.98;13.55;;;;;;;;;;5012431;28;20063;-73
2022/10/12 03:57:31;;;;;;;31.38;14.13;;;;;;;;;;5030413;28;21008;-74
2022/10/12 03:59:56;;;;;;;21.02;12.18;;;;;;;;;;5035519;28;20015;-74
2022/10/12 04:02:21;;;;;;;21.10;12.60;;;;;;;;;;5035301;28;20121;-73
2022/10/12 04:04:47;;;;;;;25.90;13.00;;;;;;;;;;5030214;28;20897;-73
2022/10/12 04:07:12;;;;;;;20.52;12.20;;;;;;;;;;5036171;28;20477;-73
2022/10/12 04:09:37;;;;;;;19.00;11.85;;;;;;;;;;5029759;28;20026;-73
2022/10/12 04:12:02;;;;;;;18.95;12.32;;;;;;;;;;5029466;28;20842;-72
2022/10/12 04:14:28;;;;;;;20.65;11.95;;;;;;;;;;5012879;28;20917;-73
2022/10/12 04:16:53;;;;;;;20.00;11.40;;;;;;;;;;5036039;28;20915;-73
2022/10/12 04:19:19;;;;;;;18.80;12.48;;;;;;;;;;5012834;28;20851;-72
2022/10/12 04:21:44;;;;;;;21.25;12.77;;;;;;;;;;5012986;28;20017;-73
2022/10/12 04:24:09;;;;;;;23.40;13.90;;;;;;;;;;5029720;28;20047;-73
2022/10/12 04:26:34;;;;;;;24.58;13.00;;;;;;;;;;5030432;28;20131;-72
2022/10/12 04:29:00;;;;;;;16.45;11.40;;;;;;;;;;5029713;28;20082;-73
2022/10/12 04:31:25;;;;;;;24.95;13.55;;;;;;;;;;5012311;28;20020;-73
2022/10/12 04:33:55;;;;;;;19.50;12.35;;;;;;;;;;5011751;28;20020;-67
2022/10/12 04:36:20;;;;;;;19.85;12.02;;;;;;;;;;5029248;28;20032;-75
2022/10/12 04:38:45;;;;;;;25.70;14.25;;;;;;;;;;5013441;28;20033;-75
2022/10/12 04:41:11;;;;;;;21.48;12.80;;;;;;;;;;5011537;28;20083;-75
2022/10/12 04:43:36;;;;;;;19.70;13.30;;;;;;;;;;5011048;28;20017;-75
2022/10/12 04:46:01;;;;;;;20.17;13.00;;;;;;;;;;5011884;28;20020;-75
2022/10/12 04:48:26;;;;;;;23.52;13.63;;;;;;;;;;5016610;28;20021;-75
2022/10/12 04:50:52;;;;;;;19.92;13.23;;;;;;;;;;5012806;28;20090;-75
2022/10/12 04:53:17;;;;;;;21.67;14.02;;;;;;;;;;5021295;28;20881;-75
2022/10/12 04:55:43;;;;;;;26.15;13.85;;;;;;;;;;5029169;28;20768;-75
2022/10/12 04:58:08;;;;;;;25.20;13.70;;;;;;;;;;5011889;28;20847;-77
2022/10/12 05:00:33;;;;;;;22.27;13.25;;;;;;;;;;5014434;28;20814;-75
2022/10/12 05:02:58;;;;;;;19.00;13.45;;;;;;;;;;5009767;28;20075;-75
2022/10/12 05:05:24;;;;;;;19.48;13.65;;;;;;;;;;5019617;28;20106;-76
2022/10/12 05:07:49;;;;;;;20.63;13.60;;;;;;;;;;5018698;28;20860;-76
2022/10/12 05:10:14;;;;;;;24.52;14.20;;;;;;;;;;5016644;28;20948;-72
2022/10/12 05:12:41;;;;;;;20.92;13.77;;;;;;;;;;5032284;28;20912;-72
2022/10/12 05:15:07;;;;;;;23.05;12.82;;;;;;;;;;5032344;28;20020;-74
2022/10/12 05:17:32;;;;;;;23.50;13.13;;;;;;;;;;5020581;28;20266;-76
2022/10/12 05:19:57;;;;;;;26.42;14.60;;;;;;;;;;5032967;28;20028;-76
2022/10/12 05:22:22;;;;;;;26.42;14.60;;;;;;;;;;5018353;28;20016;-76
2022/10/12 05:24:48;;;;;;;30.10;13.05;;;;;;;;;;5017309;28;20019;-76
2022/10/12 05:27:13;;;;;;;22.08;11.60;;;;;;;;;;5023706;28;20029;-76
2022/10/12 05:29:38;;;;;;;22.10;13.82;;;;;;;;;;5014179;28;20815;-76
2022/10/12 05:32:03;;;;;;;20.02;13.68;;;;;;;;;;5022112;28;20032;-76
2022/10/12 05:34:29;;;;;;;23.60;13.02;;;;;;;;;;5005148;28;20119;-76
2022/10/12 05:36:54;;;;;;;24.80;13.80;;;;;;;;;;5014195;28;20036;-76
2022/10/12 05:39:19;;;;;;;28.17;14.88;;;;;;;;;;5014509;28;20128;-76
2022/10/12 05:41:45;;;;;;;26.92;15.10;;;;;;;;;;5032795;28;20039;-76
2022/10/12 05:44:10;;;;;;;24.08;13.60;;;;;;;;;;5035478;28;20044;-76
2022/10/12 05:46:35;;;;;;;20.20;12.88;;;;;;;;;;5022420;28;20028;-76
2022/10/12 05:49:00;;;;;;;18.35;13.70;;;;;;;;;;5017512;28;21511;-74
2022/10/12 05:51:25;;;;;;;20.63;14.20;;;;;;;;;;5016206;28;20020;-74
2022/10/12 05:53:51;;;;;;;21.35;13.57;;;;;;;;;;5014687;28;20023;-77
2022/10/12 05:56:16;;;;;;;21.45;14.02;;;;;;;;;;5015815;28;20383;-77
2022/10/12 05:58:41;;;;;;;24.25;14.00;;;;;;;;;;5014082;28;20017;-77
2022/10/12 06:01:08;;;;;;;21.13;13.80;;;;;;;;;;5024009;28;20020;-76
2022/10/12 06:03:34;;;;;;;21.10;13.25;;;;;;;;;;5014571;28;20017;-77
2022/10/12 06:05:59;;;;;;;22.70;13.38;;;;;;;;;;5047784;28;20012;-77
2022/10/12 06:08:24;;;;;;;22.08;12.88;;;;;;;;;;5032241;28;20135;-77
2022/10/12 06:10:50;;;;;;;22.30;13.32;;;;;;;;;;5022004;28;20024;-76
2022/10/12 06:13:16;;;;;;;20.67;14.35;;;;;;;;;;5018023;28;20078;-77
2022/10/12 06:15:45;;;;;;;18.20;13.02;;;;;;;;;;5015974;28;20017;-76
2022/10/12 06:18:11;;;;;;;26.20;13.45;;;;;;;;;;5017585;28;20130;-77
2022/10/12 06:20:36;;;;;;;20.70;13.02;;;;;;;;;;5016635;28;20074;-77
2022/10/12 06:23:02;;;;;;;24.20;12.57;;;;;;;;;;5016227;28;20067;-77
2022/10/12 06:25:27;;;;;;;23.80;12.40;;;;;;;;;;5036699;28;20021;-72
2022/10/12 06:27:52;;;;;;;28.50;14.93;;;;;;;;;;5056641;28;20044;-76
2022/10/12 06:30:17;;;;;;;22.17;13.85;;;;;;;;;;5055596;28;20012;-76
2022/10/12 06:32:43;;;;;;;17.88;13.50;;;;;;;;;;5055956;28;20017;-76
2022/10/12 06:35:08;;;;;;;25.50;12.57;;;;;;;;;;5055661;28;20462;-76
2022/10/12 06:37:34;;;;;;;23.80;12.32;;;;;;;;;;5055365;28;20028;-76
2022/10/12 06:39:59;;;;;;;23.10;11.93;;;;;;;;;;5055580;28;20091;-76
2022/10/12 06:42:24;;;;;;;22.23;13.55;;;;;;;;;;5075326;28;20020;-76
2022/10/12 06:44:49;;;;;;;22.30;13.13;;;;;;;;;;5074010;28;20471;-76
2022/10/12 06:47:14;;;;;;;24.83;15.07;;;;;;;;;;5056440;28;20028;-76
2022/10/12 06:49:40;;;;;;;27.23;16.73;;;;;;;;;;5067049;28;20024;-75
2022/10/12 06:52:05;;;;;;;28.45;18.35;;;;;;;;;;5055761;28;20056;-76
2022/10/12 06:54:30;;;;;;;33.35;19.20;;;;;;;;;;5072353;28;20031;-76
2022/10/12 06:56:55;;;;;;;40.83;20.20;;;;;;;;;;5055377;28;20028;-76
2022/10/12 06:59:21;;;;;;;33.28;18.33;;;;;;;;;;5071015;28;20023;-76
2022/10/12 07:01:47;;;;;;;24.65;19.40;;;;;;;;;;5055820;28;20529;-76
2022/10/12 07:04:12;;;;;;;28.45;19.33;;;;;;;;;;5055713;28;20360;-76
2022/10/12 07:06:38;;;;;;;38.50;20.13;;;;;;;;;;5073281;28;20009;-76
2022/10/12 07:09:03;;;;;;;34.05;18.65;;;;;;;;;;5052867;28;20751;-77
2022/10/12 07:11:28;;;;;;;37.80;18.45;;;;;;;;;;5081521;28;20024;-77
2022/10/12 07:13:53;;;;;;;30.13;16.73;;;;;;;;;;5055087;28;20417;-76
2022/10/12 07:16:19;;;;;;;32.20;17.05;;;;;;;;;;5067890;28;20024;-77
2022/10/12 07:18:44;;;;;;;24.88;18.00;;;;;;;;;;5054880;28;20012;-77
2022/10/12 07:21:09;;;;;;;28.38;17.80;;;;;;;;;;5063681;28;20027;-77
2022/10/12 07:23:36;;;;;;;25.75;18.38;;;;;;;;;;5073942;28;20024;-76
2022/10/12 07:26:02;;;;;;;21.27;15.30;;;;;;;;;;5055063;28;20035;-77
2022/10/12 07:28:27;;;;;;;27.77;16.40;;;;;;;;;;5033904;28;20029;-77
2022/10/12 07:30:52;;;;;;;27.58;16.70;;;;;;;;;;5040143;28;20022;-76
2022/10/12 07:33:18;;;;;;;27.33;16.73;;;;;;;;;;5070907;28;20027;-76
2022/10/12 07:35:51;;;;;;;28.52;15.63;;;;;;;;;;5072640;28;20091;-76
2022/10/12 07:38:16;;;;;;;25.15;16.25;;;;;;;;;;5055373;28;20024;-76
2022/10/12 07:40:41;;;;;;;27.30;16.38;;;;;;;;;;5054883;28;20027;-76
2022/10/12 07:43:07;;;;;;;30.13;17.47;;;;;;;;;;5072168;28;20088;-75
2022/10/12 07:45:32;;;;;;;37.15;17.58;;;;;;;;;;5072566;28;20353;-76
2022/10/12 07:47:58;;;;;;;28.88;15.75;;;;;;;;;;5072943;28;20052;-76
2022/10/12 07:50:24;;;;;;;33.58;18.83;;;;;;;;;;5072083;28;20532;-77
2022/10/12 07:52:49;;;;;;;26.45;17.17;;;;;;;;;;5054845;28;20020;-76
2022/10/12 07:55:15;;;;;;;32.83;18.10;;;;;;;;;;5071397;28;20016;-77
2022/10/12 07:57:40;;;;;;;27.88;18.30;;;;;;;;;;5054163;28;20553;-76
2022/10/12 08:00:05;;;;;;;23.35;16.48;;;;;;;;;;5057492;28;20028;-76
2022/10/12 08:02:31;;;;;;;22.98;15.95;;;;;;;;;;5076032;28;20020;-77
2022/10/12 08:04:56;;;;;;;23.98;15.38;;;;;;;;;;5054616;28;20012;-75
2022/10/12 08:07:21;;;;;;;22.70;14.57;;;;;;;;;;5054486;28;20530;-77
2022/10/12 08:09:47;;;;;;;26.43;13.37;;;;;;;;;;5054263;28;20036;-76
2022/10/12 08:12:12;;;;;;;30.67;14.50;;;;;;;;;;5069512;28;20273;-77
2022/10/12 08:14:37;;;;;;;22.52;13.40;;;;;;;;;;5049981;28;20467;-77
2022/10/12 08:17:04;;;;;;;23.05;12.45;;;;;;;;;;5071601;28;20024;-78
2022/10/12 08:19:29;;;;;;;17.90;12.20;;;;;;;;;;5071537;28;20017;-78
2022/10/12 08:21:54;;;;;;;23.63;13.10;;;;;;;;;;5070828;28;20020;-78
2022/10/12 08:24:20;;;;;;;25.88;12.30;;;;;;;;;;5069601;28;20027;-78
2022/10/12 08:26:45;;;;;;;20.27;11.15;;;;;;;;;;5071837;28;20020;-79
2022/10/12 08:29:11;;;;;;;21.17;11.52;;;;;;;;;;5063268;28;20055;-77
2022/10/12 08:31:36;;;;;;;18.35;10.73;;;;;;;;;;5026596;28;20032;-77
2022/10/12 08:34:02;;;;;;;18.67;10.07;;;;;;;;;;5030290;28;20122;-73
2022/10/12 08:36:27;;;;;;;24.42;12.07;;;;;;;;;;5028880;28;20915;-76
2022/10/12 08:38:53;;;;;;;16.92;10.00;;;;;;;;;;5016368;28;20127;-66
2022/10/12 08:41:31;;;;;;;16.15;9.95;;;;;;;;;;5030489;28;20074;-77
2022/10/12 08:44:05;;;;;;;15.00;9.25;;;;;;;;;;5023450;28;20022;-77
2022/10/12 08:46:31;;;;;;;16.13;9.68;;;;;;;;;;5032597;28;20028;-77
2022/10/12 08:49:19;;;;;;;14.95;8.23;;;;;;;;;;5014860;28;20075;-76
2022/10/12 08:51:49;;;;;;;18.65;8.27;;;;;;;;;;5003369;28;20142;-76
2022/10/12 08:54:16;;;;;;;13.43;8.15;;;;;;;;;;5013161;28;20022;-79
2022/10/12 08:56:42;;;;;;;18.23;8.38;;;;;;;;;;5011921;28;20021;-76
2022/10/12 08:59:12;;;;;;;15.90;7.30;;;;;;;;;;5014022;28;20028;-76
2022/10/12 09:01:49;;;;;;;16.08;7.80;;;;;;;;;;5065339;28;20024;-75
2022/10/12 09:04:15;;;;;;;21.63;7.25;;;;;;;;;;5069774;28;20028;-76
2022/10/12 09:06:40;;;;;;;15.10;6.57;;;;;;;;;;5051914;28;20024;-77
2022/10/12 09:09:24;;;;;;;13.33;6.63;;;;;;;;;;5069705;28;20021;-75
2022/10/12 09:12:07;;;;;;;12.27;5.53;;;;;;;;;;5069582;28;20274;-75
2022/10/12 09:14:35;;;;;;;11.57;6.22;;;;;;;;;;5085224;28;20459;-77
2022/10/12 09:17:01;;;;;;;11.75;5.68;;;;;;;;;;5069751;28;20027;-76
2022/10/12 09:19:31;;;;;;;15.10;5.82;;;;;;;;;;5069861;28;20033;-77
2022/10/12 09:21:57;;;;;;;17.42;5.25;;;;;;;;;;5048505;28;20454;-76
2022/10/12 09:24:24;;;;;;;13.25;5.63;;;;;;;;;;5069225;28;20032;-77
2022/10/12 09:26:50;;;;;;;10.90;5.22;;;;;;;;;;5085719;28;20069;-77
2022/10/12 09:29:30;;;;;;;11.27;5.40;;;;;;;;;;5051052;28;20395;-76
2022/10/12 09:32:01;;;;;;;9.40;4.07;;;;;;;;;;5064060;28;20046;-79
2022/10/12 09:34:26;;;;;;;8.73;4.72;;;;;;;;;;5064502;28;20074;-78
2022/10/12 09:36:54;;;;;;;13.65;5.32;;;;;;;;;;5069059;28;20028;-81
2022/10/12 09:39:21;;;;;;;11.05;4.78;;;;;;;;;;5048849;28;20788;-79
2022/10/12 09:41:47;;;;;;;9.48;4.43;;;;;;;;;;5069826;28;20498;-79
2022/10/12 09:44:21;;;;;;;11.50;3.88;;;;;;;;;;5069636;28;20033;-78
2022/10/12 09:47:03;;;;;;;11.02;4.32;;;;;;;;;;5070773;28;20460;-81
2022/10/12 09:49:51;;;;;;;12.88;3.95;;;;;;;;;;5041640;28;20045;-77
2022/10/12 09:52:18;;;;;;;7.72;3.70;;;;;;;;;;5056763;28;20056;-76
2022/10/12 09:54:48;;;;;;;8.88;3.47;;;;;;;;;;5057061;28;20435;-78
2022/10/12 09:57:32;;;;;;;6.60;3.67;;;;;;;;;;5055351;28;20095;-79
2022/10/12 09:59:58;;;;;;;8.40;3.55;;;;;;;;;;5089714;28;20047;-79
2022/10/12 10:02:24;;;;;;;7.10;3.08;;;;;;;;;;5074536;28;20040;-82
2022/10/12 10:04:50;;;;;;;9.48;3.63;;;;;;;;;;5056870;28;20043;-81
2022/10/12 10:07:32;;;;;;;7.88;3.70;;;;;;;;;;5039406;28;20016;-80
2022/10/12 10:10:16;;;;;;;6.45;3.28;;;;;;;;;;5034818;28;20535;-79
2022/10/12 10:12:49;;;;;;;9.45;3.90;;;;;;;;;;5072276;28;20070;-81
2022/10/12 10:15:18;;;;;;;6.15;3.50;;;;;;;;;;5087328;28;20069;-79
2022/10/12 10:17:47;;;;;;;9.40;3.33;;;;;;;;;;5030696;28;20016;-79
2022/10/12 10:20:21;;;;;;;5.97;3.08;;;;;;;;;;5063791;28;20113;-80
2022/10/12 10:22:47;;;;;;;6.33;3.03;;;;;;;;;;5025711;28;20028;-80
2022/10/12 10:25:18;;;;;;;7.07;3.55;;;;;;;;;;5023335;28;20790;-80
2022/10/12 10:27:43;;;;;;;7.28;3.20;;;;;;;;;;5050230;28;20040;-79
2022/10/12 10:30:14;;;;;;;11.82;4.13;;;;;;;;;;5019239;28;20021;-79
2022/10/12 10:32:39;;;;;;;8.02;3.20;;;;;;;;;;5041689;28;20024;-79
2022/10/12 10:35:16;;;;;;;8.98;3.65;;;;;;;;;;5030102;28;20024;-79
2022/10/12 10:37:41;;;;;;;16.42;3.60;;;;;;;;;;5036790;28;20889;-78
2022/10/12 10:40:21;;;;;;;11.60;4.05;;;;;;;;;;5027081;28;20048;-78
2022/10/12 10:42:51;;;;;;;7.07;3.42;;;;;;;;;;5065977;28;20073;-78
2022/10/12 10:45:23;;;;;;;9.02;3.60;;;;;;;;;;5012615;28;20036;-78
2022/10/12 10:47:48;;;;;;;13.52;4.00;;;;;;;;;;5022859;28;20858;-78
2022/10/12 10:50:43;;;;;;;7.63;3.33;;;;;;;;;;5028226;28;20036;-78
2022/10/12 10:53:22;;;;;;;10.77;4.07;;;;;;;;;;5013526;28;20115;-81
2022/10/12 10:55:54;;;;;;;8.05;4.10;;;;;;;;;;5006026;28;20025;-80
2022/10/12 10:58:25;;;;;;;8.18;4.18;;;;;;;;;;5039595;28;20020;-79
2022/10/12 11:00:51;;;;;;;6.43;3.40;;;;;;;;;;5047861;28;20111;-77
2022/10/12 11:03:33;;;;;;;18.60;4.40;;;;;;;;;;5053150;28;20032;-78
2022/10/12 11:06:11;;;;;;;12.00;3.90;;;;;;;;;;5028078;28;20246;-78
2022/10/12 11:08:37;;;;;;;8.30;3.72;;;;;;;;;;5029389;28;20021;-78
2022/10/12 11:11:14;;;;;;;10.63;3.67;;;;;;;;;;5068607;28;20103;-79
2022/10/12 11:13:46;;;;;;;10.93;3.67;;;;;;;;;;5052934;28;20118;-79
2022/10/12 11:16:24;;;;;;;7.15;3.10;;;;;;;;;;5048882;28;20039;-80
2022/10/12 11:18:52;;;;;;;7.15;3.42;;;;;;;;;;5032417;28;20020;-74
2022/10/12 11:21:37;;;;;;;7.40;3.25;;;;;;;;;;5029517;28;20858;-75
2022/10/12 11:24:12;;;;;;;8.25;3.53;;;;;;;;;;5049109;28;20973;-77
2022/10/12 11:26:41;;;;;;;9.65;3.83;;;;;;;;;;5029412;28;20029;-74
2022/10/12 11:29:11;;;;;;;5.70;3.45;;;;;;;;;;5047812;28;20025;-74
2022/10/12 11:31:38;;;;;;;7.80;2.85;;;;;;;;;;5034357;28;20148;-75
2022/10/12 11:34:05;;;;;;;9.73;3.88;;;;;;;;;;5048507;28;20863;-79
2022/10/12 11:36:32;;;;;;;9.35;3.72;;;;;;;;;;5030767;28;20024;-74
2022/10/12 11:39:00;;;;;;;4.57;2.55;;;;;;;;;;5064309;28;20015;-74
2022/10/12 11:41:31;;;;;;;8.57;3.08;;;;;;;;;;5037519;28;20032;-74
2022/10/12 11:44:00;;;;;;;8.30;3.38;;;;;;;;;;5060286;28;20025;-77
2022/10/12 11:46:37;;;;;;;8.70;3.55;;;;;;;;;;5049191;28;20020;-75
2022/10/12 11:49:14;;;;;;;9.13;3.10;;;;;;;;;;5049328;28;20032;-77
2022/10/12 11:51:43;;;;;;;7.38;2.90;;;;;;;;;;5034419;28;20028;-76
2022/10/12 11:54:21;;;;;;;6.28;3.30;;;;;;;;;;5023396;28;20056;-76
2022/10/12 11:56:49;;;;;;;12.05;3.88;;;;;;;;;;5064425;28;20128;-75
2022/10/12 11:59:37;;;;;;;7.30;3.40;;;;;;;;;;5043025;28;20024;-74
2022/10/12 12:02:15;;;;;;;4.30;2.30;;;;;;;;;;5040493;28;20138;-75
2022/10/12 12:04:42;;;;;;;8.77;3.22;;;;;;;;;;5030986;28;20028;-74
2022/10/12 12:07:26;;;;;;;9.05;3.67;;;;;;;;;;5029874;28;20031;-74
2022/10/12 12:09:52;;;;;;;5.60;3.15;;;;;;;;;;5047545;28;20040;-77
2022/10/12 12:12:17;;;;;;;7.75;3.67;;;;;;;;;;5029641;28;20834;-75
2022/10/12 12:14:52;;;;;;;7.45;3.35;;;;;;;;;;5026784;28;20032;-75
2022/10/12 12:17:17;;;;;;;8.32;3.35;;;;;;;;;;5032280;28;20027;-75
2022/10/12 12:19:43;;;;;;;5.80;3.47;;;;;;;;;;5029181;28;20029;-75
2022/10/12 12:22:15;;;;;;;10.38;3.70;;;;;;;;;;5033348;28;20024;-76
2022/10/12 12:24:49;;;;;;;5.32;2.80;;;;;;;;;;4999900;28;20863;-78
2022/10/12 12:27:26;;;;;;;6.22;3.00;;;;;;;;;;5045647;28;20020;-75
2022/10/12 12:29:52;;;;;;;10.85;3.03;;;;;;;;;;5030093;28;20036;-77
2022/10/12 12:32:18;;;;;;;10.95;2.75;;;;;;;;;;5032464;28;20021;-79
2022/10/12 12:34:51;;;;;;;18.33;3.80;;;;;;;;;;5032235;28;20914;-75
2022/10/12 12:37:18;;;;;;;7.72;2.97;;;;;;;;;;5011440;28;20917;-77
2022/10/12 12:39:44;;;;;;;8.00;3.30;;;;;;;;;;5012564;28;20128;-76
2022/10/12 12:42:09;;;;;;;9.43;3.80;;;;;;;;;;5043825;28;20015;-77
2022/10/12 12:44:39;;;;;;;9.18;3.80;;;;;;;;;;5034649;28;20020;-79
2022/10/12 12:47:08;;;;;;;8.23;3.45;;;;;;;;;;5016053;28;20028;-76
2022/10/12 12:49:36;;;;;;;6.43;2.95;;;;;;;;;;5045367;28;20977;-75
2022/10/12 12:52:02;;;;;;;6.45;2.92;;;;;;;;;;5038803;28;20028;-76
2022/10/12 12:54:28;;;;;;;5.15;2.70;;;;;;;;;;5032021;28;20087;-75
2022/10/12 12:57:05;;;;;;;7.28;3.50;;;;;;;;;;5016069;28;20024;-76
2022/10/12 12:59:39;;;;;;;9.57;3.60;;;;;;;;;;5016587;28;20021;-78
2022/10/12 13:02:05;;;;;;;5.25;2.88;;;;;;;;;;5017215;28;20031;-77
2022/10/12 13:04:45;;;;;;;9.05;3.50;;;;;;;;;;5017786;28;20020;-76
2022/10/12 13:07:29;;;;;;;5.45;2.78;;;;;;;;;;5012352;28;20026;-76
2022/10/12 13:10:13;;;;;;;7.90;3.03;;;;;;;;;;5020468;28;20025;-76
2022/10/12 13:12:58;;;;;;;10.18;3.20;;;;;;;;;;5024620;28;20111;-80
2022/10/12 13:15:32;;;;;;;14.10;3.65;;;;;;;;;;5051621;28;20024;-79
2022/10/12 13:18:00;;;;;;;10.63;3.88;;;;;;;;;;5034773;28;21058;-78
2022/10/12 13:20:27;;;;;;;7.72;3.17;;;;;;;;;;5027952;28;20043;-77
2022/10/12 13:22:54;;;;;;;7.68;2.95;;;;;;;;;;5044927;28;20059;-75
2022/10/12 13:25:25;;;;;;;9.68;3.58;;;;;;;;;;5044624;28;20131;-78
2022/10/12 13:27:51;;;;;;;16.85;4.55;;;;;;;;;;5027102;28;20016;-76
2022/10/12 13:30:29;;;;;;;8.68;2.85;;;;;;;;;;5048375;28;20036;-76
2022/10/12 13:32:57;;;;;;;5.85;2.63;;;;;;;;;;5032807;28;20017;-75
2022/10/12 13:35:35;;;;;;;5.97;2.97;;;;;;;;;;5041428;28;20024;-76
2022/10/12 13:38:02;;;;;;;8.35;3.13;;;;;;;;;;5041145;28;20060;-76
2022/10/12 13:40:51;;;;;;;5.50;2.83;;;;;;;;;;5042027;28;20024;-77
2022/10/12 13:43:36;;;;;;;6.40;3.08;;;;;;;;;;5038886;28;20056;-74
2022/10/12 13:46:02;;;;;;;12.93;2.92;;;;;;;;;;4998893;28;20155;-76
2022/10/12 13:48:28;;;;;;;10.63;3.40;;;;;;;;;;5063314;28;20779;-75
2022/10/12 13:50:58;;;;;;;7.22;2.75;;;;;;;;;;5028866;28;20028;-77
2022/10/12 13:53:24;;;;;;;9.00;3.03;;;;;;;;;;5026013;28;20186;-75
2022/10/12 13:55:55;;;;;;;7.38;2.80;;;;;;;;;;5046979;28;20116;-77
2022/10/12 13:58:26;;;;;;;6.53;2.42;;;;;;;;;;5044012;28;20060;-77
2022/10/12 14:00:51;;;;;;;4.90;2.58;;;;;;;;;;5040927;28;20473;-75
2022/10/12 14:03:16;;;;;;;16.33;3.13;;;;;;;;;;5024019;28;20127;-76
2022/10/12 14:05:43;;;;;;;15.95;4.10;;;;;;;;;;5045105;28;20021;-74
2022/10/12 14:08:18;;;;;;;13.82;3.70;;;;;;;;;;5027125;28;20020;-75
2022/10/12 14:10:43;;;;;;;6.40;3.33;;;;;;;;;;5023460;28;20033;-74
2022/10/12 14:13:21;;;;;;;9.48;3.33;;;;;;;;;;5050397;28;20016;-75
2022/10/12 14:15:46;;;;;;;6.57;2.85;;;;;;;;;;5021846;28;20218;-78
2022/10/12 14:18:31;;;;;;;7.30;3.00;;;;;;;;;;5021072;28;20466;-76
2022/10/12 14:21:15;;;;;;;6.35;3.47;;;;;;;;;;5010035;28;20120;-77
2022/10/12 14:23:52;;;;;;;12.68;3.20;;;;;;;;;;5012627;28;20071;-76
2022/10/12 14:26:25;;;;;;;9.32;3.45;;;;;;;;;;5054967;28;20028;-75
2022/10/12 14:28:50;;;;;;;7.03;3.30;;;;;;;;;;5024224;28;20034;-75
2022/10/12 14:31:16;;;;;;;5.20;2.78;;;;;;;;;;5022975;28;20717;-75
2022/10/12 14:33:42;;;;;;;10.30;3.60;;;;;;;;;;5023786;28;20029;-75